aviador You're here:

EPZG Decoded Metar

ZIELONA GORA in POLAND
Report Time2017-08-20 19:00:00
UTC Time2017-08-20 19:14:11
Flight Rules vfr VFR
Wind210° at 03 kt
W.Decomp.*RWY 24: 2.5 kt HW 1.6 kt LCW
W.Rank210° ranks 6
Current wind is below 210° avg. (6.6)
Visibility9999 m
Phenomena:N/A
Clouds:N/A
Expected CloudBase > 1,200 ft AGL from Temp-Dew spread
CeilingNone
Temp14°C (ISA -1)
Dew Point11°C (82% RH)
AAT13.2°C
QNH1020 hPa
Density Alt62 ft
Elevation194 ft
Report Wrong Elevation
Raw Report
METAR EPZG 201900Z 21003KT CAVOK 14/11 Q1020 =

Extra information for EPZG:More info

Metar Taf Metar & Taf Last 4 Metars F.Rules Stats Wind Profile Meteogram Temp Stats Airport Information Weather charts Add Link Nearby VenuesMetar ALERT Operation Metar Decoded Social comments